sensor_id;sensor_type;location;lat;lon;timestamp;pressure;altitude;pressure_sealevel;temperature;humidity
30516;BME280;17297;54.022;10.760;2022-09-23T00:01:57;102002.09;;;14.69;56.95
30516;BME280;17297;54.022;10.760;2022-09-23T00:04:22;102002.09;;;14.69;56.85
30516;BME280;17297;54.022;10.760;2022-09-23T00:06:48;102001.44;;;14.67;56.70
30516;BME280;17297;54.022;10.760;2022-09-23T00:09:13;101990.00;;;14.65;56.92
30516;BME280;17297;54.022;10.760;2022-09-23T00:11:38;101989.16;;;14.64;56.88
30516;BME280;17297;54.022;10.760;2022-09-23T00:14:04;101982.03;;;14.63;56.76
30516;BME280;17297;54.022;10.760;2022-09-23T00:16:31;101988.66;;;14.61;56.80
30516;BME280;17297;54.022;10.760;2022-09-23T00:18:58;101985.97;;;14.61;56.73
30516;BME280;17297;54.022;10.760;2022-09-23T00:21:25;101980.75;;;14.59;56.83
30516;BME280;17297;54.022;10.760;2022-09-23T00:23:50;101974.50;;;14.59;56.74
30516;BME280;17297;54.022;10.760;2022-09-23T00:26:17;101979.25;;;14.57;56.71
30516;BME280;17297;54.022;10.760;2022-09-23T00:28:44;101974.03;;;14.55;56.75
30516;BME280;17297;54.022;10.760;2022-09-23T00:31:16;101967.97;;;14.53;56.82
30516;BME280;17297;54.022;10.760;2022-09-23T00:33:42;101975.44;;;14.51;56.75
30516;BME280;17297;54.022;10.760;2022-09-23T00:36:10;101971.03;;;14.50;56.75
30516;BME280;17297;54.022;10.760;2022-09-23T00:38:37;101968.47;;;14.48;56.61
30516;BME280;17297;54.022;10.760;2022-09-23T00:41:03;101967.66;;;14.48;56.58
30516;BME280;17297;54.022;10.760;2022-09-23T00:43:51;101963.28;;;14.47;56.63
30516;BME280;17297;54.022;10.760;2022-09-23T00:46:38;101964.94;;;14.48;56.34
30516;BME280;17297;54.022;10.760;2022-09-23T00:49:10;101963.66;;;14.44;56.70
30516;BME280;17297;54.022;10.760;2022-09-23T00:51:39;101961.97;;;14.43;56.57
30516;BME280;17297;54.022;10.760;2022-09-23T00:54:08;101963.81;;;14.42;56.51
30516;BME280;17297;54.022;10.760;2022-09-23T00:56:34;101952.38;;;14.40;56.51
30516;BME280;17297;54.022;10.760;2022-09-23T00:59:01;101953.41;;;14.39;56.64
30516;BME280;17297;54.022;10.760;2022-09-23T01:01:27;101951.69;;;14.38;56.60
30516;BME280;17297;54.022;10.760;2022-09-23T01:03:54;101951.69;;;14.38;56.55
30516;BME280;17297;54.022;10.760;2022-09-23T01:06:20;101943.59;;;14.38;56.48
30516;BME280;17297;54.022;10.760;2022-09-23T01:08:46;101941.91;;;14.37;56.49
30516;BME280;17297;54.022;10.760;2022-09-23T01:11:20;101938.38;;;14.37;56.65
30516;BME280;17297;54.022;10.760;2022-09-23T01:14:05;101935.84;;;14.35;56.54
30516;BME280;17297;54.022;10.760;2022-09-23T01:16:42;101928.75;;;14.34;56.57
30516;BME280;17297;54.022;10.760;2022-09-23T01:19:53;101931.63;;;14.32;56.65
30516;BME280;17297;54.022;10.760;2022-09-23T01:22:52;101925.59;;;14.30;56.46
30516;BME280;17297;54.022;10.760;2022-09-23T01:28:43;101925.97;;;14.27;56.47
30516;BME280;17297;54.022;10.760;2022-09-23T01:31:34;101923.25;;;14.27;56.57
30516;BME280;17297;54.022;10.760;2022-09-23T01:34:11;101925.97;;;14.27;56.76
30516;BME280;17297;54.022;10.760;2022-09-23T01:36:52;101920.72;;;14.26;56.49
30516;BME280;17297;54.022;10.760;2022-09-23T01:39:34;101920.94;;;14.24;56.51
30516;BME280;17297;54.022;10.760;2022-09-23T01:42:14;101922.59;;;14.25;56.56
30516;BME280;17297;54.022;10.760;2022-09-23T01:44:59;101920.09;;;14.24;56.44
30516;BME280;17297;54.022;10.760;2022-09-23T01:47:54;101916.53;;;14.23;56.56
30516;BME280;17297;54.022;10.760;2022-09-23T01:50:25;101913.19;;;14.21;56.45
30516;BME280;17297;54.022;10.760;2022-09-23T01:53:18;101909.81;;;14.19;56.68
30516;BME280;17297;54.022;10.760;2022-09-23T01:55:49;101920.66;;;14.19;56.53
30516;BME280;17297;54.022;10.760;2022-09-23T01:58:37;101903.97;;;14.16;56.48
30516;BME280;17297;54.022;10.760;2022-09-23T02:01:07;101911.25;;;14.15;56.39
30516;BME280;17297;54.022;10.760;2022-09-23T02:03:41;101911.63;;;14.12;56.40
30516;BME280;17297;54.022;10.760;2022-09-23T02:06:16;101901.63;;;14.13;56.24
30516;BME280;17297;54.022;10.760;2022-09-23T02:08:56;101898.00;;;14.05;56.29
30516;BME280;17297;54.022;10.760;2022-09-23T02:11:24;101898.38;;;14.02;56.46
30516;BME280;17297;54.022;10.760;2022-09-23T02:14:06;101889.81;;;13.99;56.50
30516;BME280;17297;54.022;10.760;2022-09-23T02:16:38;101894.56;;;13.97;56.45
30516;BME280;17297;54.022;10.760;2022-09-23T02:19:08;101886.59;;;13.95;56.53
30516;BME280;17297;54.022;10.760;2022-09-23T02:21:40;101888.69;;;13.93;56.49
30516;BME280;17297;54.022;10.760;2022-09-23T02:24:15;101888.84;;;13.92;56.59
30516;BME280;17297;54.022;10.760;2022-09-23T02:26:51;101882.63;;;13.91;56.60
30516;BME280;17297;54.022;10.760;2022-09-23T02:29:21;101879.25;;;13.89;56.60
30516;BME280;17297;54.022;10.760;2022-09-23T02:32:11;101886.53;;;13.89;56.70
30516;BME280;17297;54.022;10.760;2022-09-23T02:35:00;101881.31;;;13.87;56.68
30516;BME280;17297;54.022;10.760;2022-09-23T02:40:17;101877.94;;;13.85;56.71
30516;BME280;17297;54.022;10.760;2022-09-23T02:45:48;101867.13;;;13.85;56.53
30516;BME280;17297;54.022;10.760;2022-09-23T02:48:20;101867.34;;;13.83;56.78
30516;BME280;17297;54.022;10.760;2022-09-23T02:50:47;101867.34;;;13.83;56.79
30516;BME280;17297;54.022;10.760;2022-09-23T02:53:13;101862.09;;;13.82;56.79
30516;BME280;17297;54.022;10.760;2022-09-23T02:55:40;101858.56;;;13.81;56.89
30516;BME280;17297;54.022;10.760;2022-09-23T02:58:06;101850.63;;;13.80;56.79
30516;BME280;17297;54.022;10.760;2022-09-23T03:00:42;101850.44;;;13.81;56.94
30516;BME280;17297;54.022;10.760;2022-09-23T03:03:21;101848.56;;;13.82;56.72
30516;BME280;17297;54.022;10.760;2022-09-23T03:05:56;101854.81;;;13.82;56.84
30516;BME280;17297;54.022;10.760;2022-09-23T03:08:32;101846.91;;;13.81;56.88
30516;BME280;17297;54.022;10.760;2022-09-23T03:11:07;101845.22;;;13.80;56.76
30516;BME280;17297;54.022;10.760;2022-09-23T03:18:39;101838.97;;;13.79;56.84
30516;BME280;17297;54.022;10.760;2022-09-23T03:21:09;101834.22;;;13.81;57.05
30516;BME280;17297;54.022;10.760;2022-09-23T03:23:39;101827.13;;;13.80;56.84
30516;BME280;17297;54.022;10.760;2022-09-23T03:26:26;101831.69;;;13.80;56.97
30516;BME280;17297;54.022;10.760;2022-09-23T03:28:53;101821.72;;;13.80;56.88
30516;BME280;17297;54.022;10.760;2022-09-23T03:31:19;101820.03;;;13.79;56.91
30516;BME280;17297;54.022;10.760;2022-09-23T03:33:47;101816.50;;;13.79;56.91
30516;BME280;17297;54.022;10.760;2022-09-23T03:36:17;101815.66;;;13.78;56.97
30516;BME280;17297;54.022;10.760;2022-09-23T03:39:27;101816.69;;;13.77;57.03
30516;BME280;17297;54.022;10.760;2022-09-23T03:41:56;101810.44;;;13.77;56.81
30516;BME280;17297;54.022;10.760;2022-09-23T03:44:23;101812.28;;;13.76;56.90
30516;BME280;17297;54.022;10.760;2022-09-23T03:46:49;101811.47;;;13.76;56.92
30516;BME280;17297;54.022;10.760;2022-09-23T03:49:23;101806.25;;;13.74;57.00
30516;BME280;17297;54.022;10.760;2022-09-23T03:51:52;101806.25;;;13.74;56.98
30516;BME280;17297;54.022;10.760;2022-09-23T03:54:17;101807.47;;;13.72;56.92
30516;BME280;17297;54.022;10.760;2022-09-23T03:56:45;101809.34;;;13.71;57.14
30516;BME280;17297;54.022;10.760;2022-09-23T03:59:12;101801.22;;;13.71;56.99
30516;BME280;17297;54.022;10.760;2022-09-23T04:01:39;101800.78;;;13.68;57.03
30516;BME280;17297;54.022;10.760;2022-09-23T04:04:06;101796.38;;;13.67;57.20
30516;BME280;17297;54.022;10.760;2022-09-23T04:06:32;101797.41;;;13.66;57.18
30516;BME280;17297;54.022;10.760;2022-09-23T04:08:57;101793.03;;;13.65;57.19
30516;BME280;17297;54.022;10.760;2022-09-23T04:11:23;101790.50;;;13.63;57.27
30516;BME280;17297;54.022;10.760;2022-09-23T04:13:48;101792.53;;;13.61;57.13
30516;BME280;17297;54.022;10.760;2022-09-23T04:16:13;101788.16;;;13.60;57.29
30516;BME280;17297;54.022;10.760;2022-09-23T04:18:39;101786.50;;;13.59;57.32
30516;BME280;17297;54.022;10.760;2022-09-23T04:21:04;101782.09;;;13.58;57.20
30516;BME280;17297;54.022;10.760;2022-09-23T04:23:30;101776.06;;;13.56;57.20
30516;BME280;17297;54.022;10.760;2022-09-23T04:25:55;101776.06;;;13.56;57.20
30516;BME280;17297;54.022;10.760;2022-09-23T04:28:21;101770.84;;;13.54;57.30
30516;BME280;17297;54.022;10.760;2022-09-23T04:30:46;101773.53;;;13.54;57.23
30516;BME280;17297;54.022;10.760;2022-09-23T04:33:13;101772.91;;;13.52;57.16
30516;BME280;17297;54.022;10.760;2022-09-23T04:35:39;101764.97;;;13.51;57.41
30516;BME280;17297;54.022;10.760;2022-09-23T04:38:07;101764.97;;;13.51;57.30
30516;BME280;17297;54.022;10.760;2022-09-23T04:40:34;101764.13;;;13.50;57.37
30516;BME280;17297;54.022;10.760;2022-09-23T04:42:59;101763.31;;;13.50;57.27
30516;BME280;17297;54.022;10.760;2022-09-23T04:45:25;101767.88;;;13.49;57.33
30516;BME280;17297;54.022;10.760;2022-09-23T04:47:50;101761.59;;;13.49;57.37
30516;BME280;17297;54.022;10.760;2022-09-23T04:50:16;101757.22;;;13.48;57.14
30516;BME280;17297;54.022;10.760;2022-09-23T04:52:41;101765.34;;;13.48;57.50
30516;BME280;17297;54.022;10.760;2022-09-23T04:55:07;101762.63;;;13.48;57.32
30516;BME280;17297;54.022;10.760;2022-09-23T04:57:33;101768.03;;;13.48;57.24
30516;BME280;17297;54.022;10.760;2022-09-23T04:59:59;101765.34;;;13.48;57.57
30516;BME280;17297;54.022;10.760;2022-09-23T05:02:24;101765.16;;;13.49;57.37
30516;BME280;17297;54.022;10.760;2022-09-23T05:04:50;101763.31;;;13.50;57.44
30516;BME280;17297;54.022;10.760;2022-09-23T05:07:15;101761.22;;;13.52;57.42
30516;BME280;17297;54.022;10.760;2022-09-23T05:09:43;101762.72;;;13.54;57.44
30516;BME280;17297;54.022;10.760;2022-09-23T05:12:09;101756.19;;;13.63;57.46
30516;BME280;17297;54.022;10.760;2022-09-23T05:14:34;101764.28;;;13.78;57.52
30516;BME280;17297;54.022;10.760;2022-09-23T05:16:59;101767.97;;;13.92;57.41
30516;BME280;17297;54.022;10.760;2022-09-23T05:19:25;101766.72;;;14.09;57.35
30516;BME280;17297;54.022;10.760;2022-09-23T05:21:50;101767.69;;;14.23;57.18
30516;BME280;17297;54.022;10.760;2022-09-23T05:24:15;101763.38;;;14.29;57.00
30516;BME280;17297;54.022;10.760;2022-09-23T05:26:41;101761.31;;;14.31;56.99
30516;BME280;17297;54.022;10.760;2022-09-23T05:29:06;101763.19;;;14.30;56.95
30516;BME280;17297;54.022;10.760;2022-09-23T05:31:32;101759.66;;;14.30;56.94
30516;BME280;17297;54.022;10.760;2022-09-23T05:34:03;101758.78;;;14.29;56.85
30516;BME280;17297;54.022;10.760;2022-09-23T05:36:30;101753.38;;;14.29;56.75
30516;BME280;17297;54.022;10.760;2022-09-23T05:38:56;101756.75;;;14.31;56.74
30516;BME280;17297;54.022;10.760;2022-09-23T05:41:23;101754.69;;;14.33;56.65
30516;BME280;17297;54.022;10.760;2022-09-23T05:43:50;101758.50;;;14.39;56.72
30516;BME280;17297;54.022;10.760;2022-09-23T05:46:21;101749.97;;;14.42;56.74
30516;BME280;17297;54.022;10.760;2022-09-23T05:48:48;101753.16;;;14.46;56.50
30516;BME280;17297;54.022;10.760;2022-09-23T05:51:19;101743.16;;;14.46;56.40
30516;BME280;17297;54.022;10.760;2022-09-23T05:53:45;101747.91;;;14.44;56.27
30516;BME280;17297;54.022;10.760;2022-09-23T05:56:15;101742.88;;;14.41;56.60
30516;BME280;17297;54.022;10.760;2022-09-23T05:58:41;101740.78;;;14.37;56.41
30516;BME280;17297;54.022;10.760;2022-09-23T06:01:11;101739.47;;;14.32;56.51
30516;BME280;17297;54.022;10.760;2022-09-23T06:03:37;101735.47;;;14.28;56.58
30516;BME280;17297;54.022;10.760;2022-09-23T06:06:03;101738.56;;;14.25;56.71
30516;BME280;17297;54.022;10.760;2022-09-23T06:08:29;101738.13;;;14.22;56.67
30516;BME280;17297;54.022;10.760;2022-09-23T06:10:56;101736.63;;;14.19;56.73
30516;BME280;17297;54.022;10.760;2022-09-23T06:13:22;101741.22;;;14.19;56.65
30516;BME280;17297;54.022;10.760;2022-09-23T06:15:47;101747.00;;;14.16;56.78
30516;BME280;17297;54.022;10.760;2022-09-23T06:18:13;101752.59;;;14.14;56.77
30516;BME280;17297;54.022;10.760;2022-09-23T06:20:38;101745.13;;;14.16;56.88
30516;BME280;17297;54.022;10.760;2022-09-23T06:23:06;101736.38;;;14.14;56.85
30516;BME280;17297;54.022;10.760;2022-09-23T06:25:32;101742.63;;;14.15;56.95
30516;BME280;17297;54.022;10.760;2022-09-23T06:27:58;101741.59;;;14.16;57.11
30516;BME280;17297;54.022;10.760;2022-09-23T06:30:25;101738.69;;;14.17;57.01
30516;BME280;17297;54.022;10.760;2022-09-23T06:32:52;101739.34;;;14.19;56.99
30516;BME280;17297;54.022;10.760;2022-09-23T06:35:23;101737.28;;;14.21;57.13
30516;BME280;17297;54.022;10.760;2022-09-23T06:37:49;101736.06;;;14.24;57.18
30516;BME280;17297;54.022;10.760;2022-09-23T06:40:15;101738.19;;;14.28;57.17
30516;BME280;17297;54.022;10.760;2022-09-23T06:42:41;101743.47;;;14.37;57.20
30516;BME280;17297;54.022;10.760;2022-09-23T06:45:08;101741.94;;;14.49;57.14
30516;BME280;17297;54.022;10.760;2022-09-23T06:47:37;101732.28;;;14.61;57.09
30516;BME280;17297;54.022;10.760;2022-09-23T06:50:03;101739.50;;;14.82;57.15
30516;BME280;17297;54.022;10.760;2022-09-23T06:52:28;101735.78;;;15.11;57.17
30516;BME280;17297;54.022;10.760;2022-09-23T06:54:57;101728.00;;;15.43;56.86
30516;BME280;17297;54.022;10.760;2022-09-23T06:57:22;101732.28;;;15.65;56.53
30516;BME280;17297;54.022;10.760;2022-09-23T06:59:48;101731.75;;;15.77;56.06
30516;BME280;17297;54.022;10.760;2022-09-23T07:02:14;101733.41;;;15.78;55.91
30516;BME280;17297;54.022;10.760;2022-09-23T07:04:39;101732.56;;;15.77;55.75
30516;BME280;17297;54.022;10.760;2022-09-23T07:07:04;101731.50;;;15.72;55.73
30516;BME280;17297;54.022;10.760;2022-09-23T07:09:30;101721.44;;;15.65;55.74
30516;BME280;17297;54.022;10.760;2022-09-23T07:11:55;101730.38;;;15.59;55.60
30516;BME280;17297;54.022;10.760;2022-09-23T07:14:20;101723.03;;;15.53;55.70
30516;BME280;17297;54.022;10.760;2022-09-23T07:16:49;101725.50;;;15.48;55.78
30516;BME280;17297;54.022;10.760;2022-09-23T07:19:17;101731.56;;;15.43;55.94
30516;BME280;17297;54.022;10.760;2022-09-23T07:21:42;101727.38;;;15.41;55.92
30516;BME280;17297;54.022;10.760;2022-09-23T07:24:08;101718.81;;;15.37;55.97
30516;BME280;17297;54.022;10.760;2022-09-23T07:26:33;101727.16;;;15.36;56.03
30516;BME280;17297;54.022;10.760;2022-09-23T07:29:00;101722.75;;;15.35;56.20
30516;BME280;17297;54.022;10.760;2022-09-23T07:31:30;101732.56;;;15.36;55.98
30516;BME280;17297;54.022;10.760;2022-09-23T07:33:57;101716.50;;;15.34;55.93
30516;BME280;17297;54.022;10.760;2022-09-23T07:36:24;101725.47;;;15.35;56.23
30516;BME280;17297;54.022;10.760;2022-09-23T07:38:52;101727.97;;;15.36;56.13
30516;BME280;17297;54.022;10.760;2022-09-23T07:41:19;101729.88;;;15.36;56.21
30516;BME280;17297;54.022;10.760;2022-09-23T07:43:45;101727.78;;;15.38;56.23
30516;BME280;17297;54.022;10.760;2022-09-23T07:46:14;101724.88;;;15.39;56.35
30516;BME280;17297;54.022;10.760;2022-09-23T07:48:41;101728.19;;;15.41;56.37
30516;BME280;17297;54.022;10.760;2022-09-23T07:51:08;101725.31;;;15.43;56.23
30516;BME280;17297;54.022;10.760;2022-09-23T07:53:34;101729.69;;;15.44;56.16
30516;BME280;17297;54.022;10.760;2022-09-23T07:56:00;101737.63;;;15.45;56.31
30516;BME280;17297;54.022;10.760;2022-09-23T07:58:28;101732.81;;;15.47;56.33
30516;BME280;17297;54.022;10.760;2022-09-23T08:00:53;101738.06;;;15.49;56.55
30516;BME280;17297;54.022;10.760;2022-09-23T08:03:19;101732.41;;;15.51;56.36
30516;BME280;17297;54.022;10.760;2022-09-23T08:05:45;101728.28;;;15.55;56.40
30516;BME280;17297;54.022;10.760;2022-09-23T08:08:11;101736.00;;;15.58;56.46
30516;BME280;17297;54.022;10.760;2022-09-23T08:10:38;101734.75;;;15.60;56.66
30516;BME280;17297;54.022;10.760;2022-09-23T08:13:03;101738.94;;;15.63;56.54
30516;BME280;17297;54.022;10.760;2022-09-23T08:15:29;101741.25;;;15.66;56.54
30516;BME280;17297;54.022;10.760;2022-09-23T08:17:58;101742.56;;;15.70;56.66
30516;BME280;17297;54.022;10.760;2022-09-23T08:20:24;101745.72;;;15.74;56.64
30516;BME280;17297;54.022;10.760;2022-09-23T08:23:09;101743.00;;;15.74;56.66
30516;BME280;17297;54.022;10.760;2022-09-23T08:25:35;101748.19;;;15.75;56.61
30516;BME280;17297;54.022;10.760;2022-09-23T08:28:00;101741.53;;;15.78;56.61
30516;BME280;17297;54.022;10.760;2022-09-23T08:30:25;101740.47;;;15.79;56.57
30516;BME280;17297;54.022;10.760;2022-09-23T08:32:51;101743.19;;;15.79;56.55
30516;BME280;17297;54.022;10.760;2022-09-23T08:35:16;101741.13;;;15.81;56.50
30516;BME280;17297;54.022;10.760;2022-09-23T08:37:42;101744.50;;;15.83;56.62
30516;BME280;17297;54.022;10.760;2022-09-23T08:40:07;101739.47;;;15.86;56.74
30516;BME280;17297;54.022;10.760;2022-09-23T08:42:42;101738.25;;;15.89;56.66
30516;BME280;17297;54.022;10.760;2022-09-23T08:45:24;101729.69;;;15.92;56.43
30516;BME280;17297;54.022;10.760;2022-09-23T08:50:21;101737.03;;;15.98;56.39
30516;BME280;17297;54.022;10.760;2022-09-23T08:52:53;101732.19;;;16.00;56.57
30516;BME280;17297;54.022;10.760;2022-09-23T08:55:22;101729.09;;;16.03;56.45
30516;BME280;17297;54.022;10.760;2022-09-23T09:00:43;101729.72;;;16.12;56.25
30516;BME280;17297;54.022;10.760;2022-09-23T09:03:32;101720.97;;;16.16;56.32
30516;BME280;17297;54.022;10.760;2022-09-23T09:05:58;101718.69;;;16.20;56.15
30516;BME280;17297;54.022;10.760;2022-09-23T09:08:27;101718.88;;;16.25;56.17
30516;BME280;17297;54.022;10.760;2022-09-23T09:10:56;101713.03;;;16.28;56.02
30516;BME280;17297;54.022;10.760;2022-09-23T09:13:40;101712.22;;;16.34;56.07
30516;BME280;17297;54.022;10.760;2022-09-23T09:16:24;101712.63;;;16.38;55.71
30516;BME280;17297;54.022;10.760;2022-09-23T09:18:54;101704.06;;;16.41;55.83
30516;BME280;17297;54.022;10.760;2022-09-23T09:21:30;101711.59;;;16.46;55.62
30516;BME280;17297;54.022;10.760;2022-09-23T09:23:59;101701.16;;;16.49;55.80
30516;BME280;17297;54.022;10.760;2022-09-23T09:26:28;101711.38;;;16.47;55.53
30516;BME280;17297;54.022;10.760;2022-09-23T09:29:08;101693.84;;;16.50;55.68
30516;BME280;17297;54.022;10.760;2022-09-23T09:31:40;101695.72;;;16.56;55.94
30516;BME280;17297;54.022;10.760;2022-09-23T09:36:56;101697.19;;;16.65;55.41
30516;BME280;17297;54.022;10.760;2022-09-23T09:39:23;101697.59;;;16.69;55.33
30516;BME280;17297;54.022;10.760;2022-09-23T09:41:50;101686.53;;;16.70;55.46
30516;BME280;17297;54.022;10.760;2022-09-23T09:44:51;101688.59;;;16.75;55.43
30516;BME280;17297;54.022;10.760;2022-09-23T09:47:47;101680.25;;;16.83;55.44
30516;BME280;17297;54.022;10.760;2022-09-23T09:53:26;101684.84;;;16.96;55.33
30516;BME280;17297;54.022;10.760;2022-09-23T09:55:58;101681.88;;;17.04;55.23
30516;BME280;17297;54.022;10.760;2022-09-23T09:58:27;101672.88;;;17.10;55.21
30516;BME280;17297;54.022;10.760;2022-09-23T10:00:54;101672.63;;;17.18;55.27
30516;BME280;17297;54.022;10.760;2022-09-23T10:03:30;101666.16;;;17.26;54.95
30516;BME280;17297;54.022;10.760;2022-09-23T10:05:57;101665.06;;;17.34;55.01
30516;BME280;17297;54.022;10.760;2022-09-23T10:08:47;101666.47;;;17.43;54.93
30516;BME280;17297;54.022;10.760;2022-09-23T10:11:17;101661.84;;;17.50;54.73
30516;BME280;17297;54.022;10.760;2022-09-23T10:16:24;101659.50;;;17.53;54.40
30516;BME280;17297;54.022;10.760;2022-09-23T10:18:50;101652.81;;;17.56;54.50
30516;BME280;17297;54.022;10.760;2022-09-23T10:21:21;101656.78;;;17.60;54.53
30516;BME280;17297;54.022;10.760;2022-09-23T10:23:49;101655.72;;;17.61;54.44
30516;BME280;17297;54.022;10.760;2022-09-23T10:26:25;101657.19;;;17.64;54.75
30516;BME280;17297;54.022;10.760;2022-09-23T10:28:53;101646.69;;;17.67;54.65
30516;BME280;17297;54.022;10.760;2022-09-23T10:31:26;101650.00;;;17.69;54.74
30516;BME280;17297;54.022;10.760;2022-09-23T10:34:01;101653.34;;;17.71;54.86
30516;BME280;17297;54.022;10.760;2022-09-23T10:36:30;101644.75;;;17.74;54.48
30516;BME280;17297;54.022;10.760;2022-09-23T10:38:58;101642.66;;;17.76;54.32
30516;BME280;17297;54.022;10.760;2022-09-23T10:42:03;101639.28;;;17.81;54.08
30516;BME280;17297;54.022;10.760;2022-09-23T10:45:18;101645.13;;;17.85;53.96
30516;BME280;17297;54.022;10.760;2022-09-23T10:48:08;101640.31;;;17.87;53.96
30516;BME280;17297;54.022;10.760;2022-09-23T10:50:41;101630.44;;;17.92;54.14
30516;BME280;17297;54.022;10.760;2022-09-23T10:53:22;101632.94;;;17.94;53.90
30516;BME280;17297;54.022;10.760;2022-09-23T10:56:11;101637.94;;;17.97;53.95
30516;BME280;17297;54.022;10.760;2022-09-23T10:59:31;101639.38;;;17.99;54.19
30516;BME280;17297;54.022;10.760;2022-09-23T11:04:51;101633.88;;;18.06;53.58
30516;BME280;17297;54.022;10.760;2022-09-23T11:07:35;101636.59;;;18.06;53.45
30516;BME280;17297;54.022;10.760;2022-09-23T11:21:49;101611.97;;;18.26;53.67
30516;BME280;17297;54.022;10.760;2022-09-23T11:24:41;101609.38;;;18.31;53.51
30516;BME280;17297;54.022;10.760;2022-09-23T11:27:34;101604.94;;;18.37;53.51
30516;BME280;17297;54.022;10.760;2022-09-23T11:30:15;101604.03;;;18.43;53.22
30516;BME280;17297;54.022;10.760;2022-09-23T11:35:44;101588.69;;;18.49;52.84
30516;BME280;17297;54.022;10.760;2022-09-23T11:38:19;101590.97;;;18.52;53.06
30516;BME280;17297;54.022;10.760;2022-09-23T11:40:51;101587.16;;;18.53;52.88
30516;BME280;17297;54.022;10.760;2022-09-23T11:43:22;101582.09;;;18.56;52.67
30516;BME280;17297;54.022;10.760;2022-09-23T11:48:17;101578.34;;;18.57;52.10
30516;BME280;17297;54.022;10.760;2022-09-23T11:56:02;101565.53;;;18.58;52.33
30516;BME280;17297;54.022;10.760;2022-09-23T11:58:30;101569.09;;;18.58;52.23
30516;BME280;17297;54.022;10.760;2022-09-23T12:01:09;101562.81;;;18.58;52.33
30516;BME280;17297;54.022;10.760;2022-09-23T12:03:46;101559.03;;;18.59;52.47
30516;BME280;17297;54.022;10.760;2022-09-23T12:06:17;101558.19;;;18.58;52.60
30516;BME280;17297;54.022;10.760;2022-09-23T12:08:44;101560.47;;;18.61;52.22
30516;BME280;17297;54.022;10.760;2022-09-23T12:11:21;101550.63;;;18.60;52.33
30516;BME280;17297;54.022;10.760;2022-09-23T12:19:19;101547.47;;;18.63;52.48
30516;BME280;17297;54.022;10.760;2022-09-23T12:21:58;101548.03;;;18.65;52.63
30516;BME280;17297;54.022;10.760;2022-09-23T12:27:16;101546.13;;;18.73;52.65
30516;BME280;17297;54.022;10.760;2022-09-23T12:29:48;101541.25;;;18.75;52.55
30516;BME280;17297;54.022;10.760;2022-09-23T12:32:17;101548.16;;;18.77;52.26
30516;BME280;17297;54.022;10.760;2022-09-23T12:34:45;101546.88;;;18.80;52.25
30516;BME280;17297;54.022;10.760;2022-09-23T12:37:22;101540.13;;;18.82;51.81
30516;BME280;17297;54.022;10.760;2022-09-23T12:39:49;101540.72;;;18.84;51.40
30516;BME280;17297;54.022;10.760;2022-09-23T12:42:17;101539.69;;;18.85;51.37
30516;BME280;17297;54.022;10.760;2022-09-23T12:44:46;101544.06;;;18.86;51.88
30516;BME280;17297;54.022;10.760;2022-09-23T12:49:51;101539.81;;;18.90;51.95
30516;BME280;17297;54.022;10.760;2022-09-23T12:54:47;101538.97;;;18.90;51.83
30516;BME280;17297;54.022;10.760;2022-09-23T13:05:45;101525.81;;;18.87;51.53
30516;BME280;17297;54.022;10.760;2022-09-23T13:08:31;101517.88;;;18.85;51.59
30516;BME280;17297;54.022;10.760;2022-09-23T13:10:59;101524.38;;;18.84;51.54
30516;BME280;17297;54.022;10.760;2022-09-23T13:13:30;101508.88;;;18.85;51.25
30516;BME280;17297;54.022;10.760;2022-09-23T13:19:01;101515.34;;;18.84;51.41
30516;BME280;17297;54.022;10.760;2022-09-23T13:26:37;101504.47;;;18.84;51.64
30516;BME280;17297;54.022;10.760;2022-09-23T13:29:04;101499.00;;;18.84;51.01
30516;BME280;17297;54.022;10.760;2022-09-23T13:31:31;101498.78;;;18.85;51.06
30516;BME280;17297;54.022;10.760;2022-09-23T13:34:02;101497.09;;;18.84;51.05
30516;BME280;17297;54.022;10.760;2022-09-23T13:36:45;101489.78;;;18.85;51.55
30516;BME280;17297;54.022;10.760;2022-09-23T13:39:25;101493.09;;;18.87;51.53
30516;BME280;17297;54.022;10.760;2022-09-23T13:41:57;101488.72;;;18.86;51.42
30516;BME280;17297;54.022;10.760;2022-09-23T13:44:26;101483.25;;;18.86;51.72
30516;BME280;17297;54.022;10.760;2022-09-23T13:46:56;101480.75;;;18.84;51.50
30516;BME280;17297;54.022;10.760;2022-09-23T13:49:24;101485.16;;;18.85;51.36
30516;BME280;17297;54.022;10.760;2022-09-23T13:51:51;101473.44;;;18.85;51.54
30516;BME280;17297;54.022;10.760;2022-09-23T13:54:45;101472.56;;;18.84;51.55
30516;BME280;17297;54.022;10.760;2022-09-23T13:57:28;101473.66;;;18.83;51.62
30516;BME280;17297;54.022;10.760;2022-09-23T13:59:53;101472.56;;;18.84;51.38
30516;BME280;17297;54.022;10.760;2022-09-23T14:02:23;101471.75;;;18.84;51.11
30516;BME280;17297;54.022;10.760;2022-09-23T14:04:50;101467.97;;;18.85;51.37
30516;BME280;17297;54.022;10.760;2022-09-23T14:07:17;101462.53;;;18.85;51.23
30516;BME280;17297;54.022;10.760;2022-09-23T14:09:46;101466.09;;;18.85;50.99
30516;BME280;17297;54.022;10.760;2022-09-23T14:12:12;101465.00;;;18.86;51.16
30516;BME280;17297;54.022;10.760;2022-09-23T14:14:40;101464.19;;;18.86;51.17
30516;BME280;17297;54.022;10.760;2022-09-23T14:17:07;101456.84;;;18.86;50.99
30516;BME280;17297;54.022;10.760;2022-09-23T14:19:34;101458.72;;;18.86;51.12
30516;BME280;17297;54.022;10.760;2022-09-23T14:22:01;101465.63;;;18.88;50.65
30516;BME280;17297;54.022;10.760;2022-09-23T14:24:34;101449.25;;;18.88;50.74